createdAt,value
2018-07-26T00:00:27.164Z,22.7
2018-07-26T00:02:27.258Z,22.71
2018-07-26T00:03:27.383Z,22.71
2018-07-26T00:05:27.194Z,22.7
2018-07-26T00:06:27.339Z,22.71
2018-07-26T00:07:27.218Z,22.71
2018-07-26T00:08:27.213Z,22.71
2018-07-26T00:10:27.202Z,22.68
2018-07-26T00:11:27.150Z,22.74
2018-07-26T00:12:27.392Z,22.7
2018-07-26T00:13:27.021Z,22.7
2018-07-26T00:16:27.070Z,22.71
2018-07-26T00:17:27.136Z,22.68
2018-07-26T00:18:27.139Z,22.71
2018-07-26T00:19:27.146Z,22.7
2018-07-26T00:21:27.282Z,22.71
2018-07-26T00:22:26.994Z,22.71
2018-07-26T00:23:27.288Z,22.71
2018-07-26T00:24:27.267Z,22.7
2018-07-26T00:26:27.120Z,22.7
2018-07-26T00:27:27.316Z,22.7
2018-07-26T00:28:27.252Z,22.68
2018-07-26T00:29:27.070Z,22.71
2018-07-26T00:31:27.112Z,22.73
2018-07-26T00:33:27.076Z,22.71
2018-07-26T00:34:27.046Z,22.7
2018-07-26T00:36:27.197Z,22.7
2018-07-26T00:37:27.231Z,22.71
2018-07-26T00:38:27.298Z,22.71
2018-07-26T00:39:27.254Z,22.7
2018-07-26T00:41:27.777Z,22.71
2018-07-26T00:42:27.239Z,22.7
2018-07-26T00:43:27.110Z,22.7
2018-07-26T00:44:27.195Z,22.68
2018-07-26T00:47:27.084Z,22.68
2018-07-26T00:48:27.138Z,22.71
2018-07-26T00:49:27.121Z,22.71
2018-07-26T00:51:27.158Z,22.71
2018-07-26T00:52:27.318Z,22.68
2018-07-26T00:53:27.093Z,22.68
2018-07-26T00:54:27.301Z,22.68
2018-07-26T00:56:27.586Z,22.71
2018-07-26T00:57:27.222Z,22.67
2018-07-26T00:58:27.037Z,22.68
2018-07-26T00:59:27.353Z,22.71
2018-07-26T01:01:27.054Z,22.7
2018-07-26T01:02:27.049Z,22.7
2018-07-26T01:03:27.114Z,22.68
2018-07-26T01:04:27.100Z,22.67
2018-07-26T01:06:27.174Z,22.7
2018-07-26T01:07:27.177Z,22.7
2018-07-26T01:08:27.189Z,22.67
2018-07-26T01:09:27.433Z,22.7
2018-07-26T01:11:27.408Z,22.68
2018-07-26T01:13:27.106Z,22.68
2018-07-26T01:14:27.254Z,22.68
2018-07-26T01:15:27.112Z,22.7
2018-07-26T01:17:27.239Z,22.73
2018-07-26T01:18:27.055Z,22.68
2018-07-26T01:19:27.410Z,22.67
2018-07-26T01:20:27.132Z,22.7
2018-07-26T01:22:27.725Z,22.67
2018-07-26T01:23:27.097Z,22.67
2018-07-26T01:24:27.769Z,22.7
2018-07-26T01:25:27.012Z,22.68
2018-07-26T01:27:27.621Z,22.68
2018-07-26T01:28:27.047Z,22.68
2018-07-26T01:29:27.349Z,22.67
2018-07-26T01:30:27.072Z,22.68
2018-07-26T01:32:27.076Z,22.68
2018-07-26T01:34:27.081Z,22.68
2018-07-26T01:35:27.191Z,22.67
2018-07-26T01:36:27.192Z,22.71
2018-07-26T01:37:27.128Z,22.68
2018-07-26T01:40:27.134Z,22.68
2018-07-26T01:41:27.119Z,22.67
2018-07-26T01:42:27.336Z,22.67
2018-07-26T01:43:27.010Z,22.67
2018-07-26T01:45:27.335Z,22.68
2018-07-26T01:46:27.080Z,22.67
2018-07-26T01:47:27.083Z,22.67
2018-07-26T01:48:27.199Z,22.68
2018-07-26T01:51:27.302Z,22.67
2018-07-26T01:52:27.019Z,22.67
2018-07-26T01:53:27.074Z,22.7
2018-07-26T01:54:27.167Z,22.7
2018-07-26T01:56:27.201Z,22.67
2018-07-26T01:57:27.143Z,22.68
2018-07-26T01:58:27.223Z,22.67
2018-07-26T01:59:27.108Z,22.68
2018-07-26T02:01:27.082Z,22.67
2018-07-26T02:02:27.183Z,22.68
2018-07-26T02:03:27.092Z,22.67
2018-07-26T02:04:27.081Z,22.68
2018-07-26T02:07:27.093Z,22.67
2018-07-26T02:08:27.111Z,22.68
2018-07-26T02:09:27.058Z,22.68
2018-07-26T02:10:27.005Z,22.68
2018-07-26T02:12:27.071Z,22.68
2018-07-26T02:13:27.084Z,22.68
2018-07-26T02:14:27.252Z,22.67
2018-07-26T02:15:27.095Z,22.66
2018-07-26T02:18:27.567Z,22.67
2018-07-26T02:19:27.074Z,22.68
2018-07-26T02:20:27.104Z,22.66
2018-07-26T02:24:27.300Z,22.67
2018-07-26T02:25:27.096Z,22.67
2018-07-26T02:26:27.220Z,22.67
2018-07-26T02:27:27.449Z,22.66
2018-07-26T02:30:27.082Z,22.66
2018-07-26T02:31:27.351Z,22.66
2018-07-26T02:32:27.174Z,22.67
2018-07-26T02:33:27.194Z,22.67
2018-07-26T02:36:27.214Z,22.64
2018-07-26T02:37:27.071Z,22.66
2018-07-26T02:38:27.260Z,22.67
2018-07-26T02:39:27.133Z,22.68
2018-07-26T02:42:27.237Z,22.66
2018-07-26T02:43:27.184Z,22.66
2018-07-26T02:44:27.079Z,22.66
2018-07-26T02:45:27.185Z,22.64
2018-07-26T02:48:27.453Z,22.67
2018-07-26T02:49:27.286Z,22.66
2018-07-26T02:50:27.210Z,22.67
2018-07-26T02:51:27.314Z,22.67
2018-07-26T02:53:27.253Z,22.66
2018-07-26T02:54:27.302Z,22.67
2018-07-26T02:55:27.033Z,22.67
2018-07-26T02:56:27.301Z,22.66
2018-07-26T02:58:27.125Z,22.66
2018-07-26T02:59:27.226Z,22.67
2018-07-26T03:00:27.081Z,22.68
2018-07-26T03:01:27.272Z,22.66
2018-07-26T03:03:27.035Z,22.66
2018-07-26T03:04:51.465Z,22.66
2018-07-26T03:05:27.068Z,22.66
2018-07-26T03:06:27.126Z,22.67
2018-07-26T03:08:27.263Z,22.66
2018-07-26T03:09:27.161Z,22.66
2018-07-26T03:10:27.081Z,22.66
2018-07-26T03:11:27.023Z,22.66
2018-07-26T03:13:27.251Z,22.66
2018-07-26T03:14:27.179Z,22.68
2018-07-26T03:15:27.134Z,22.63
2018-07-26T03:16:26.900Z,22.64
2018-07-26T03:19:27.096Z,22.66
2018-07-26T03:20:27.059Z,22.66
2018-07-26T03:21:27.217Z,22.64
2018-07-26T03:22:27.117Z,22.67
2018-07-26T03:24:27.130Z,22.67
2018-07-26T03:25:27.114Z,22.64
2018-07-26T03:26:27.144Z,22.67
2018-07-26T03:27:27.096Z,22.67
2018-07-26T03:30:27.349Z,22.66
2018-07-26T03:31:27.156Z,22.67
2018-07-26T03:32:27.177Z,22.66
2018-07-26T03:33:27.161Z,22.66
2018-07-26T03:35:27.346Z,22.66
2018-07-26T03:36:27.300Z,22.67
2018-07-26T03:37:27.169Z,22.67
2018-07-26T03:38:27.157Z,22.67
2018-07-26T03:40:27.090Z,22.67
2018-07-26T03:41:27.326Z,22.64
2018-07-26T03:42:27.260Z,22.63
2018-07-26T03:43:27.562Z,22.66
2018-07-26T03:45:27.124Z,22.66
2018-07-26T03:46:27.302Z,22.66
2018-07-26T03:47:27.084Z,22.66
2018-07-26T03:48:27.208Z,22.66
2018-07-26T03:50:27.373Z,22.64
2018-07-26T03:52:26.967Z,22.64
2018-07-26T03:53:27.046Z,22.66
2018-07-26T03:54:27.082Z,22.63
2018-07-26T03:55:27.210Z,22.64
2018-07-26T03:57:27.322Z,22.66
2018-07-26T03:58:26.972Z,22.66
2018-07-26T03:59:27.062Z,22.63
2018-07-26T04:00:27.191Z,22.64
2018-07-26T04:04:27.153Z,22.67
2018-07-26T04:05:27.383Z,22.64
2018-07-26T04:06:27.140Z,22.64
2018-07-26T04:07:27.161Z,22.66
2018-07-26T04:09:27.050Z,22.63
2018-07-26T04:10:26.936Z,22.66
2018-07-26T04:11:26.964Z,22.64
2018-07-26T04:12:26.963Z,22.66
2018-07-26T04:15:27.214Z,22.62
2018-07-26T04:16:27.218Z,22.66
2018-07-26T04:18:27.000Z,22.64
2018-07-26T04:19:26.959Z,22.66
2018-07-26T04:20:27.141Z,22.68
2018-07-26T04:21:27.164Z,22.66
2018-07-26T04:23:27.131Z,22.67
2018-07-26T04:24:27.009Z,22.66
2018-07-26T04:25:27.176Z,22.66
2018-07-26T04:26:27.041Z,22.63
2018-07-26T04:28:26.938Z,22.63
2018-07-26T04:29:27.103Z,22.66
2018-07-26T04:30:27.151Z,22.63
2018-07-26T04:33:27.247Z,22.66
2018-07-26T04:34:27.135Z,22.64
2018-07-26T04:35:27.064Z,22.64
2018-07-26T04:36:26.998Z,22.67
2018-07-26T04:38:27.036Z,22.66
2018-07-26T04:39:27.101Z,22.62
2018-07-26T04:40:27.151Z,22.63
2018-07-26T04:41:27.064Z,22.64
2018-07-26T04:43:26.954Z,22.64
2018-07-26T04:44:27.095Z,22.66
2018-07-26T04:46:26.930Z,22.66
2018-07-26T04:48:27.003Z,22.64
2018-07-26T04:49:27.028Z,22.64
2018-07-26T04:50:27.079Z,22.64
2018-07-26T04:51:27.047Z,22.64
2018-07-26T04:53:27.226Z,22.64
2018-07-26T04:54:27.364Z,22.64
2018-07-26T04:55:26.899Z,22.64
2018-07-26T04:56:27.143Z,22.62
2018-07-26T04:58:27.052Z,22.64
2018-07-26T04:59:27.177Z,22.62
2018-07-26T05:00:27.156Z,22.63
2018-07-26T05:02:27.268Z,22.63
2018-07-26T05:04:26.955Z,22.64
2018-07-26T05:05:27.108Z,22.66
2018-07-26T05:06:27.059Z,22.64
2018-07-26T05:07:27.034Z,22.64
2018-07-26T05:09:27.013Z,22.66
2018-07-26T05:10:26.999Z,22.63
2018-07-26T05:11:27.044Z,22.63
2018-07-26T05:13:26.897Z,22.63
2018-07-26T05:15:27.134Z,22.67
2018-07-26T05:16:27.097Z,22.63
2018-07-26T05:17:27.044Z,22.64
2018-07-26T05:18:27.531Z,22.64
2018-07-26T05:20:27.167Z,22.64
2018-07-26T05:21:26.968Z,22.62
2018-07-26T05:22:26.950Z,22.66
2018-07-26T05:23:27.123Z,22.62
2018-07-26T05:25:27.177Z,22.63
2018-07-26T05:26:26.982Z,22.64
2018-07-26T05:27:26.939Z,22.63
2018-07-26T05:28:26.991Z,22.63
2018-07-26T05:30:27.192Z,22.63
2018-07-26T05:31:26.968Z,22.63
2018-07-26T05:32:27.055Z,22.64
2018-07-26T05:33:27.172Z,22.62
2018-07-26T05:35:26.961Z,22.66
2018-07-26T05:36:27.083Z,22.62
2018-07-26T05:37:27.555Z,22.64
2018-07-26T05:38:27.110Z,22.63
2018-07-26T05:40:26.834Z,22.64
2018-07-26T05:41:26.989Z,22.63
2018-07-26T05:42:26.997Z,22.64
2018-07-26T05:43:27.022Z,22.66
2018-07-26T05:45:27.034Z,22.66
2018-07-26T05:46:26.942Z,22.64
2018-07-26T05:47:27.104Z,22.62
2018-07-26T05:49:26.889Z,22.64
2018-07-26T05:50:26.935Z,22.64
2018-07-26T05:51:27.068Z,22.64
2018-07-26T05:54:26.987Z,22.63
2018-07-26T05:55:27.174Z,22.64
2018-07-26T05:56:27.150Z,22.63
2018-07-26T05:59:27.009Z,22.64
2018-07-26T06:00:26.961Z,22.64
2018-07-26T06:01:27.177Z,22.63
2018-07-26T06:03:27.077Z,22.6
2018-07-26T06:05:27.236Z,22.63
2018-07-26T06:06:27.029Z,22.64
2018-07-26T06:07:27.272Z,22.62
2018-07-26T06:08:27.176Z,22.62
2018-07-26T06:10:27.249Z,22.66
2018-07-26T06:11:27.167Z,22.62
2018-07-26T06:12:27.048Z,22.63
2018-07-26T06:13:27.088Z,22.64
2018-07-26T06:15:27.020Z,22.64
2018-07-26T06:16:37.071Z,22.63
2018-07-26T06:17:27.430Z,22.66
2018-07-26T06:18:27.160Z,22.63
2018-07-26T06:20:27.428Z,22.64
2018-07-26T06:21:27.116Z,22.62
2018-07-26T06:22:27.045Z,22.64
2018-07-26T06:23:27.275Z,22.64
2018-07-26T06:25:27.189Z,22.63
2018-07-26T06:26:27.356Z,22.63
2018-07-26T06:27:27.138Z,22.63
2018-07-26T06:28:27.122Z,22.64
2018-07-26T06:30:27.199Z,22.64
2018-07-26T06:32:27.115Z,22.63
2018-07-26T06:33:28.249Z,22.62
2018-07-26T06:34:26.923Z,22.63
2018-07-26T06:35:27.111Z,22.63
2018-07-26T06:38:27.276Z,22.64
2018-07-26T06:39:27.673Z,22.63
2018-07-26T06:40:27.021Z,22.63
2018-07-26T06:41:27.039Z,22.64
2018-07-26T06:43:27.083Z,22.64
2018-07-26T06:44:27.187Z,22.63
2018-07-26T06:45:26.990Z,22.64
2018-07-26T06:46:27.063Z,22.63
2018-07-26T06:48:27.369Z,22.62
2018-07-26T06:49:27.065Z,22.64
2018-07-26T06:50:27.102Z,22.63
2018-07-26T06:51:27.302Z,22.64
2018-07-26T06:53:27.071Z,22.63
2018-07-26T06:54:27.175Z,22.62
2018-07-26T06:55:27.158Z,22.66
2018-07-26T06:56:27.107Z,22.64
2018-07-26T06:58:27.215Z,22.66
2018-07-26T06:59:27.176Z,22.64
2018-07-26T07:00:27.003Z,22.66
2018-07-26T07:01:26.967Z,22.66
2018-07-26T07:03:27.155Z,22.64
2018-07-26T07:04:26.972Z,22.66
2018-07-26T07:05:26.998Z,22.64
2018-07-26T07:06:26.932Z,22.64
2018-07-26T07:08:27.111Z,22.63
2018-07-26T07:09:27.159Z,22.62
2018-07-26T07:10:26.972Z,22.64
2018-07-26T07:11:27.460Z,22.64
2018-07-26T07:13:27.089Z,22.64
2018-07-26T07:14:27.099Z,22.64
2018-07-26T07:15:27.080Z,22.64
2018-07-26T07:16:27.098Z,22.64
2018-07-26T07:18:27.129Z,22.66
2018-07-26T07:19:27.064Z,22.64
2018-07-26T07:20:28.367Z,22.64
2018-07-26T07:21:26.993Z,22.64
2018-07-26T07:23:27.158Z,22.66
2018-07-26T07:24:27.313Z,22.64
2018-07-26T07:25:27.164Z,22.63
2018-07-26T07:26:26.921Z,22.66
2018-07-26T07:28:27.049Z,22.64
2018-07-26T07:29:27.385Z,22.66
2018-07-26T07:30:27.096Z,22.63
2018-07-26T07:31:27.131Z,22.63
2018-07-26T07:33:27.176Z,22.63
2018-07-26T07:34:27.047Z,22.66
2018-07-26T07:35:28.193Z,22.64
2018-07-26T07:38:27.007Z,22.66
2018-07-26T07:39:27.137Z,22.63
2018-07-26T07:40:26.991Z,22.66
2018-07-26T07:41:27.651Z,22.66
2018-07-26T07:43:27.318Z,22.64
2018-07-26T07:45:27.177Z,22.63
2018-07-26T07:46:27.086Z,22.66
2018-07-26T07:47:27.551Z,22.64
2018-07-26T07:48:26.836Z,22.64
2018-07-26T07:50:27.161Z,22.66
2018-07-26T07:51:27.066Z,22.66
2018-07-26T07:52:27.079Z,22.63
2018-07-26T07:53:27.285Z,22.66
2018-07-26T07:56:27.238Z,22.67
2018-07-26T07:57:27.226Z,22.66
2018-07-26T07:58:27.145Z,22.66
2018-07-26T08:01:27.029Z,22.64
2018-07-26T08:02:27.218Z,22.67
2018-07-26T08:03:26.961Z,22.66
2018-07-26T08:04:27.091Z,22.64
2018-07-26T08:07:27.116Z,22.66
2018-07-26T08:08:27.182Z,22.67
2018-07-26T08:09:27.111Z,22.66
2018-07-26T08:12:27.132Z,22.64
2018-07-26T08:13:26.988Z,22.66
2018-07-26T08:14:27.112Z,22.66
2018-07-26T08:15:27.083Z,22.67
2018-07-26T08:17:27.095Z,22.66
2018-07-26T08:18:27.119Z,22.66
2018-07-26T08:19:27.016Z,22.64
2018-07-26T08:20:27.200Z,22.66
2018-07-26T08:22:27.034Z,22.68
2018-07-26T08:23:27.123Z,22.67
2018-07-26T08:24:27.226Z,22.67
2018-07-26T08:25:26.990Z,22.66
2018-07-26T08:27:27.091Z,22.66
2018-07-26T08:28:27.013Z,22.66
2018-07-26T08:30:27.000Z,22.64
2018-07-26T08:31:26.880Z,22.66
2018-07-26T08:32:27.037Z,22.66
2018-07-26T08:34:27.431Z,22.68
2018-07-26T08:35:27.002Z,22.66
2018-07-26T08:36:26.911Z,22.66
2018-07-26T08:37:26.929Z,22.67
2018-07-26T08:39:27.183Z,22.66
2018-07-26T08:40:26.963Z,22.66
2018-07-26T08:41:27.033Z,22.64
2018-07-26T08:42:27.164Z,22.66
2018-07-26T08:44:26.984Z,22.67
2018-07-26T08:45:26.968Z,22.68
2018-07-26T08:46:27.129Z,22.66
2018-07-26T08:47:27.134Z,22.64
2018-07-26T08:49:27.277Z,22.67
2018-07-26T08:50:27.008Z,22.64
2018-07-26T08:51:27.115Z,22.66
2018-07-26T08:52:27.115Z,22.67
2018-07-26T08:54:27.300Z,22.66
2018-07-26T08:56:26.962Z,22.66
2018-07-26T08:57:26.970Z,22.66
2018-07-26T08:58:27.117Z,22.66
2018-07-26T08:59:27.164Z,22.67
2018-07-26T09:01:27.079Z,22.67
2018-07-26T09:02:27.135Z,22.68
2018-07-26T09:03:27.262Z,22.66
2018-07-26T09:04:27.185Z,22.67
2018-07-26T09:06:27.008Z,22.66
2018-07-26T09:07:27.058Z,22.66
2018-07-26T09:08:27.085Z,22.68
2018-07-26T09:09:26.885Z,22.66
2018-07-26T09:11:28.073Z,22.67
2018-07-26T09:12:26.982Z,22.66
2018-07-26T09:13:27.878Z,22.68
2018-07-26T09:14:27.195Z,22.66
2018-07-26T09:16:27.086Z,22.67
2018-07-26T09:17:26.978Z,22.66
2018-07-26T09:18:26.917Z,22.64
2018-07-26T09:19:27.200Z,22.68
2018-07-26T09:23:27.138Z,22.67
2018-07-26T09:24:27.759Z,22.66
2018-07-26T09:25:27.289Z,22.64
2018-07-26T09:26:26.973Z,22.68
2018-07-26T09:28:26.997Z,22.66
2018-07-26T09:29:26.874Z,22.64
2018-07-26T09:30:26.971Z,22.66
2018-07-26T09:31:27.113Z,22.66
2018-07-26T09:33:27.020Z,22.66
2018-07-26T09:34:26.963Z,22.67
2018-07-26T09:35:27.746Z,22.67
2018-07-26T09:36:26.893Z,22.67
2018-07-26T09:40:27.068Z,22.66
2018-07-26T09:41:26.927Z,22.68
2018-07-26T09:42:27.012Z,22.67
2018-07-26T09:44:27.084Z,22.67
2018-07-26T09:45:26.910Z,22.67
2018-07-26T09:46:27.047Z,22.66
2018-07-26T09:47:28.152Z,22.66
2018-07-26T09:49:27.056Z,22.67
2018-07-26T09:50:27.140Z,22.67
2018-07-26T09:52:27.189Z,22.67
2018-07-26T09:53:27.138Z,22.67
2018-07-26T09:54:27.000Z,22.67
2018-07-26T09:55:27.254Z,22.66
2018-07-26T09:57:27.071Z,22.68
2018-07-26T09:59:27.134Z,22.67
2018-07-26T10:00:28.072Z,22.66
2018-07-26T10:01:27.022Z,22.66
2018-07-26T10:02:27.077Z,22.66
2018-07-26T10:04:27.087Z,22.66
2018-07-26T10:05:27.146Z,22.67
2018-07-26T10:06:27.126Z,22.66
2018-07-26T10:07:27.081Z,22.7
2018-07-26T10:10:27.372Z,22.68
2018-07-26T10:11:27.126Z,22.68
2018-07-26T10:12:27.015Z,22.67
2018-07-26T10:13:26.985Z,22.67
2018-07-26T10:15:27.124Z,22.67
2018-07-26T10:16:27.016Z,22.67
2018-07-26T10:17:27.170Z,22.67
2018-07-26T10:18:27.133Z,22.66
2018-07-26T10:20:27.153Z,22.68
2018-07-26T10:21:26.874Z,22.66
2018-07-26T10:22:27.079Z,22.67
2018-07-26T10:23:27.056Z,22.7
2018-07-26T10:26:27.008Z,22.68
2018-07-26T10:27:27.121Z,22.67
2018-07-26T10:28:27.119Z,22.67
2018-07-26T10:30:27.010Z,22.66
2018-07-26T10:32:27.241Z,22.67
2018-07-26T10:33:26.990Z,22.67
2018-07-26T10:34:27.014Z,22.67
2018-07-26T10:37:27.004Z,22.67
2018-07-26T10:38:27.385Z,22.66
2018-07-26T10:39:27.033Z,22.66
2018-07-26T10:41:26.920Z,22.67
2018-07-26T10:42:27.353Z,22.66
2018-07-26T10:43:27.109Z,22.66
2018-07-26T10:44:27.638Z,22.68
2018-07-26T10:46:27.126Z,22.66
2018-07-26T10:47:27.132Z,22.68
2018-07-26T10:49:27.091Z,22.67
2018-07-26T10:50:26.983Z,22.67
2018-07-26T10:52:26.983Z,22.68
2018-07-26T10:53:26.968Z,22.68
2018-07-26T10:54:26.998Z,22.7
2018-07-26T10:56:26.884Z,22.77
2018-07-26T10:57:26.706Z,22.73
2018-07-26T10:58:27.006Z,22.71
2018-07-26T10:59:27.040Z,22.74
2018-07-26T11:01:27.282Z,22.71
2018-07-26T11:03:27.084Z,22.73
2018-07-26T11:04:26.948Z,22.73
2018-07-26T11:05:26.905Z,22.73
2018-07-26T11:06:27.024Z,22.73
2018-07-26T11:09:26.971Z,22.7
2018-07-26T11:10:26.941Z,22.74
2018-07-26T11:11:27.084Z,22.78
2018-07-26T11:12:27.214Z,22.75
2018-07-26T11:14:27.230Z,22.75
2018-07-26T11:15:27.364Z,22.75
2018-07-26T11:16:27.496Z,22.74
2018-07-26T11:17:27.020Z,22.75
2018-07-26T11:19:27.658Z,22.74
2018-07-26T11:20:27.188Z,22.77
2018-07-26T11:21:27.181Z,22.74
2018-07-26T11:22:27.062Z,22.75
2018-07-26T11:24:26.855Z,22.73
2018-07-26T11:25:27.081Z,22.73
2018-07-26T11:26:27.112Z,22.71
2018-07-26T11:29:27.150Z,22.75
2018-07-26T11:30:27.165Z,22.73
2018-07-26T11:31:26.959Z,22.74
2018-07-26T11:32:27.886Z,22.73
2018-07-26T11:34:27.062Z,22.73
2018-07-26T11:35:27.036Z,22.73
2018-07-26T11:36:26.875Z,22.75
2018-07-26T11:37:26.929Z,22.75
2018-07-26T11:39:27.020Z,22.74
2018-07-26T11:40:27.152Z,22.75
2018-07-26T11:41:27.662Z,22.75
2018-07-26T11:44:27.037Z,22.73
2018-07-26T11:45:27.056Z,22.74
2018-07-26T11:46:27.092Z,22.74
2018-07-26T11:47:26.968Z,22.74
2018-07-26T11:49:26.888Z,22.71
2018-07-26T11:51:26.915Z,22.73
2018-07-26T11:52:27.139Z,22.73
2018-07-26T11:53:27.036Z,22.74
2018-07-26T11:54:27.044Z,22.74
2018-07-26T11:56:26.816Z,22.74
2018-07-26T11:57:27.173Z,22.73
2018-07-26T11:58:27.012Z,22.73
2018-07-26T11:59:27.179Z,22.73
2018-07-26T12:03:27.292Z,22.71
2018-07-26T12:04:27.078Z,22.71
2018-07-26T12:05:27.033Z,22.71
2018-07-26T12:06:27.122Z,22.71
2018-07-26T12:08:26.926Z,22.71
2018-07-26T12:10:26.855Z,22.71
2018-07-26T12:11:27.035Z,22.73
2018-07-26T12:13:27.190Z,22.73
2018-07-26T12:14:28.258Z,22.71
2018-07-26T12:15:26.917Z,22.73
2018-07-26T12:16:27.239Z,22.73
2018-07-26T12:18:27.047Z,22.78
2018-07-26T12:19:26.861Z,22.8
2018-07-26T12:20:27.108Z,22.78
2018-07-26T12:21:27.083Z,22.78
2018-07-26T12:23:27.062Z,22.78
2018-07-26T12:25:27.065Z,22.81
2018-07-26T12:26:27.019Z,22.83
2018-07-26T12:27:26.871Z,22.8
2018-07-26T12:29:26.851Z,22.81
2018-07-26T12:30:27.045Z,22.81
2018-07-26T12:31:27.136Z,22.84
2018-07-26T12:32:27.011Z,22.85
2018-07-26T12:34:27.058Z,22.85
2018-07-26T12:35:27.063Z,22.87
2018-07-26T12:36:26.970Z,22.9
2018-07-26T12:37:27.193Z,22.9
2018-07-26T12:39:26.847Z,22.92
2018-07-26T12:40:27.011Z,22.94
2018-07-26T12:42:27.037Z,22.95
2018-07-26T12:43:27.252Z,22.95
2018-07-26T12:44:27.082Z,22.97
2018-07-26T12:46:27.185Z,22.97
2018-07-26T12:47:27.656Z,22.98
2018-07-26T12:48:26.944Z,22.98
2018-07-26T12:49:26.847Z,22.99
2018-07-26T12:51:26.813Z,22.98
2018-07-26T12:52:27.198Z,23.01
2018-07-26T12:53:26.780Z,23.01
2018-07-26T12:54:26.824Z,23.02
2018-07-26T12:55:26.976Z,22.99
2018-07-26T12:56:26.959Z,23.01
2018-07-26T12:57:26.948Z,23.02
2018-07-26T12:58:26.859Z,23.02
2018-07-26T12:59:26.959Z,23.03
2018-07-26T13:00:27.208Z,23.05
2018-07-26T13:01:27.414Z,23.07
2018-07-26T13:02:26.902Z,23.07
2018-07-26T13:03:36.912Z,23.05
2018-07-26T13:04:26.954Z,23.07
2018-07-26T13:05:27.034Z,23.07
2018-07-26T13:06:27.022Z,23.08
2018-07-26T13:07:27.077Z,23.07
2018-07-26T13:08:26.825Z,23.07
2018-07-26T13:09:26.995Z,23.11
2018-07-26T13:10:26.896Z,23.09
2018-07-26T13:11:26.875Z,23.11
2018-07-26T13:12:27.706Z,23.11
2018-07-26T13:13:26.790Z,23.14
2018-07-26T13:14:27.187Z,23.11
2018-07-26T13:15:27.118Z,23.14
2018-07-26T13:16:27.000Z,23.14
2018-07-26T13:17:27.020Z,23.11
2018-07-26T13:18:27.123Z,23.14
2018-07-26T13:19:26.958Z,23.14
2018-07-26T13:20:27.030Z,23.14
2018-07-26T13:21:26.768Z,23.14
2018-07-26T13:22:27.042Z,23.15
2018-07-26T13:23:26.879Z,23.12
2018-07-26T13:24:27.075Z,23.14
2018-07-26T13:25:26.989Z,23.15
2018-07-26T13:26:27.024Z,23.14
2018-07-26T13:27:26.899Z,23.18
2018-07-26T13:28:27.108Z,23.19
2018-07-26T13:29:26.816Z,23.18
2018-07-26T13:30:26.808Z,23.17
2018-07-26T13:31:27.046Z,23.14
2018-07-26T13:32:26.983Z,23.15
2018-07-26T13:33:27.071Z,23.18
2018-07-26T13:34:27.076Z,23.18
2018-07-26T13:35:27.219Z,23.18
2018-07-26T13:36:27.111Z,23.17
2018-07-26T13:37:26.953Z,23.18
2018-07-26T13:38:26.862Z,23.18
2018-07-26T13:39:26.811Z,23.17
2018-07-26T13:40:26.964Z,23.11
2018-07-26T13:41:26.985Z,23.08
2018-07-26T13:42:26.832Z,23.09
2018-07-26T13:43:27.467Z,23.08
2018-07-26T13:44:27.136Z,23.07
2018-07-26T13:45:26.910Z,23.07
2018-07-26T13:46:26.834Z,23.07
2018-07-26T13:47:27.109Z,23.03
2018-07-26T13:48:26.781Z,23.03
2018-07-26T13:49:27.111Z,23.02
2018-07-26T13:50:27.182Z,23.01
2018-07-26T13:51:26.887Z,23.01
2018-07-26T13:52:28.289Z,22.99
2018-07-26T13:53:26.995Z,23.01
2018-07-26T13:54:26.976Z,22.98
2018-07-26T13:55:26.865Z,23.01
2018-07-26T13:56:26.907Z,22.99
2018-07-26T13:57:26.931Z,22.99
2018-07-26T13:58:27.796Z,22.98
2018-07-26T13:59:26.942Z,22.99
2018-07-26T14:00:26.777Z,22.98
2018-07-26T14:01:27.138Z,23.01
2018-07-26T14:02:27.041Z,23.01
2018-07-26T14:03:27.055Z,22.99
2018-07-26T14:04:27.086Z,23.01
2018-07-26T14:05:27.295Z,22.98
2018-07-26T14:06:26.757Z,22.99
2018-07-26T14:07:27.123Z,22.98
2018-07-26T14:08:26.724Z,22.99
2018-07-26T14:09:26.859Z,22.97
2018-07-26T14:10:26.946Z,22.97
2018-07-26T14:11:26.942Z,22.98
2018-07-26T14:12:27.042Z,22.97
2018-07-26T14:13:26.981Z,22.94
2018-07-26T14:14:27.184Z,22.94
2018-07-26T14:15:27.895Z,22.95
2018-07-26T14:16:26.857Z,22.94
2018-07-26T14:17:26.839Z,22.94
2018-07-26T14:18:27.080Z,22.94
2018-07-26T14:19:26.874Z,22.92
2018-07-26T14:20:26.822Z,22.92
2018-07-26T14:21:27.407Z,22.94
2018-07-26T14:22:27.966Z,22.91
2018-07-26T14:23:27.287Z,22.94
2018-07-26T14:24:26.777Z,22.92
2018-07-26T14:25:26.948Z,22.92
2018-07-26T14:26:26.917Z,22.92
2018-07-26T14:27:26.968Z,22.92
2018-07-26T14:28:26.963Z,22.92
2018-07-26T14:29:27.676Z,22.91
2018-07-26T14:30:26.767Z,22.92
2018-07-26T14:31:26.967Z,22.91
2018-07-26T14:32:26.928Z,22.94
2018-07-26T14:33:26.860Z,22.9
2018-07-26T14:34:27.001Z,22.9
2018-07-26T14:35:26.929Z,22.9
2018-07-26T14:36:27.058Z,22.9
2018-07-26T14:37:26.978Z,22.9
2018-07-26T14:38:27.059Z,22.9
2018-07-26T14:39:27.040Z,22.91
2018-07-26T14:40:26.906Z,22.9
2018-07-26T14:41:27.011Z,22.92
2018-07-26T14:42:26.850Z,22.91
2018-07-26T14:43:26.939Z,22.88
2018-07-26T14:44:27.003Z,22.9
2018-07-26T14:45:26.941Z,22.91
2018-07-26T14:46:26.870Z,22.9
2018-07-26T14:47:26.971Z,22.9
2018-07-26T14:48:27.119Z,22.9
2018-07-26T14:49:26.814Z,22.88
2018-07-26T14:50:26.966Z,22.9
2018-07-26T14:51:26.952Z,22.9
2018-07-26T14:52:26.943Z,22.91
2018-07-26T14:53:27.236Z,22.88
2018-07-26T14:54:27.820Z,22.88
2018-07-26T14:55:26.780Z,22.88
2018-07-26T14:56:26.979Z,22.9
2018-07-26T14:57:26.978Z,22.9
2018-07-26T14:58:26.813Z,22.88
2018-07-26T14:59:27.023Z,22.91
2018-07-26T15:00:26.958Z,22.88
2018-07-26T15:01:26.844Z,22.91
2018-07-26T15:02:27.116Z,22.88
2018-07-26T15:03:26.827Z,22.91
2018-07-26T15:04:27.086Z,22.91
2018-07-26T15:05:26.940Z,22.92
2018-07-26T15:06:26.974Z,22.9
2018-07-26T15:07:26.909Z,22.91
2018-07-26T15:08:26.872Z,22.91
2018-07-26T15:09:26.976Z,22.9
2018-07-26T15:10:27.147Z,22.91
2018-07-26T15:11:27.165Z,22.88
2018-07-26T15:12:27.324Z,22.91
2018-07-26T15:13:26.653Z,22.88
2018-07-26T15:14:26.954Z,22.88
2018-07-26T15:15:26.824Z,22.9
2018-07-26T15:16:26.894Z,22.9
2018-07-26T15:17:26.891Z,22.9
2018-07-26T15:18:26.824Z,22.9
2018-07-26T15:19:26.852Z,22.88
2018-07-26T15:20:27.561Z,22.9
2018-07-26T15:21:26.908Z,22.88
2018-07-26T15:22:27.110Z,22.9
2018-07-26T15:23:27.117Z,22.91
2018-07-26T15:24:27.671Z,22.9
2018-07-26T15:25:27.120Z,22.9
2018-07-26T15:26:27.125Z,22.92
2018-07-26T15:27:26.883Z,22.9
2018-07-26T15:28:27.198Z,22.91
2018-07-26T15:29:26.889Z,22.91
2018-07-26T15:30:26.977Z,22.92
2018-07-26T15:31:27.002Z,22.91
2018-07-26T15:32:27.877Z,22.91
2018-07-26T15:33:28.259Z,22.88
2018-07-26T15:34:26.927Z,22.91
2018-07-26T15:35:27.070Z,22.88
2018-07-26T15:36:26.870Z,22.91
2018-07-26T15:37:27.072Z,22.91
2018-07-26T15:38:27.036Z,22.9
2018-07-26T15:39:26.967Z,22.88
2018-07-26T15:40:27.019Z,22.91
2018-07-26T15:41:27.539Z,22.9
2018-07-26T15:42:26.863Z,22.9
2018-07-26T15:43:26.878Z,22.88
2018-07-26T15:44:26.906Z,22.91
2018-07-26T15:45:26.826Z,22.9
2018-07-26T15:46:26.899Z,22.88
2018-07-26T15:47:26.977Z,22.91
2018-07-26T15:48:26.891Z,22.88
2018-07-26T15:49:26.837Z,22.91
2018-07-26T15:50:26.895Z,22.9
2018-07-26T15:51:27.661Z,22.9
2018-07-26T15:52:27.089Z,22.9
2018-07-26T15:53:26.866Z,22.9
2018-07-26T15:54:26.722Z,22.9
2018-07-26T15:55:26.788Z,22.9
2018-07-26T15:56:26.822Z,22.91
2018-07-26T15:57:26.893Z,22.9
2018-07-26T15:58:26.815Z,22.9
2018-07-26T15:59:26.994Z,22.91
2018-07-26T16:00:26.767Z,22.9
2018-07-26T16:01:27.193Z,22.91
2018-07-26T16:02:26.797Z,22.88
2018-07-26T16:03:27.546Z,22.91
2018-07-26T16:04:26.804Z,22.88
2018-07-26T16:05:26.862Z,22.9
2018-07-26T16:06:27.003Z,22.88
2018-07-26T16:07:27.074Z,22.9
2018-07-26T16:08:26.958Z,22.9
2018-07-26T16:09:27.117Z,22.91
2018-07-26T16:10:27.054Z,22.88
2018-07-26T16:11:27.091Z,22.88
2018-07-26T16:12:27.633Z,22.9
2018-07-26T16:13:26.924Z,22.9
2018-07-26T16:14:26.944Z,22.91
2018-07-26T16:15:27.210Z,22.87
2018-07-26T16:16:26.936Z,22.88
2018-07-26T16:17:27.832Z,22.9
2018-07-26T16:18:27.295Z,22.88
2018-07-26T16:19:27.225Z,22.9